createdAt,value
2022-10-25T00:01:25.357Z,70.92
2022-10-25T00:03:52.283Z,71.03
2022-10-25T00:06:19.091Z,71.21
2022-10-25T00:08:45.607Z,71.22
2022-10-25T00:11:20.295Z,71.17
2022-10-25T00:13:50.243Z,71.11
2022-10-25T00:16:21.212Z,71.23
2022-10-25T00:18:48.330Z,71.36
2022-10-25T00:21:14.772Z,71.06
2022-10-25T00:23:41.323Z,70.69
2022-10-25T00:26:10.846Z,70.85
2022-10-25T00:28:38.272Z,71.38
2022-10-25T00:31:08.741Z,71.15
2022-10-25T00:33:37.260Z,71.57
2022-10-25T00:36:20.887Z,71.43
2022-10-25T00:38:48.127Z,71.81
2022-10-25T00:41:19.720Z,71.56
2022-10-25T00:43:53.125Z,71.39
2022-10-25T00:46:23.415Z,71.41
2022-10-25T00:49:04.660Z,71.24
2022-10-25T00:51:43.680Z,70.99
2022-10-25T00:54:19.150Z,71.13
2022-10-25T00:56:51.024Z,71.31
2022-10-25T00:59:24.434Z,71.12
2022-10-25T01:01:55.866Z,71.07
2022-10-25T01:04:27.757Z,71.00
2022-10-25T01:06:54.403Z,71.08
2022-10-25T01:09:27.251Z,71.19
2022-10-25T01:11:53.712Z,71.38
2022-10-25T01:14:20.624Z,71.37
2022-10-25T01:17:09.807Z,70.92
2022-10-25T01:20:39.667Z,71.30
2022-10-25T01:23:36.661Z,71.16
2022-10-25T01:26:24.179Z,71.46
2022-10-25T01:29:09.362Z,71.02
2022-10-25T01:31:55.949Z,70.93
2022-10-25T01:35:10.077Z,71.48
2022-10-25T01:37:58.989Z,71.75
2022-10-25T01:41:04.851Z,71.38
2022-10-25T01:43:57.140Z,71.48
2022-10-25T01:46:50.126Z,71.57
2022-10-25T01:49:39.593Z,71.58
2022-10-25T01:52:06.115Z,72.03
2022-10-25T01:54:32.710Z,71.95
2022-10-25T01:57:24.436Z,71.59
2022-10-25T02:00:14.138Z,71.32
2022-10-25T02:03:18.483Z,71.02
2022-10-25T02:06:34.423Z,70.99
2022-10-25T02:09:30.230Z,70.89
2022-10-25T02:12:00.567Z,71.35
2022-10-25T02:14:39.141Z,71.08
2022-10-25T02:17:25.318Z,71.34
2022-10-25T02:19:59.184Z,71.75
2022-10-25T02:22:32.084Z,71.28
2022-10-25T02:25:01.027Z,71.20
2022-10-25T02:27:30.873Z,70.83
2022-10-25T02:29:58.706Z,70.83
2022-10-25T02:32:25.615Z,70.89
2022-10-25T02:34:52.104Z,70.51
2022-10-25T02:37:18.819Z,70.55
2022-10-25T02:39:46.123Z,70.42
2022-10-25T02:46:17.063Z,70.82
2022-10-25T02:48:44.493Z,70.91
2022-10-25T02:51:12.506Z,70.87
2022-10-25T02:53:39.733Z,70.94
2022-10-25T02:56:13.916Z,70.77
2022-10-25T02:58:43.359Z,70.74
2022-10-25T03:01:11.499Z,70.91
2022-10-25T03:03:38.447Z,71.17
2022-10-25T03:06:05.660Z,71.20
2022-10-25T03:08:33.235Z,71.05
2022-10-25T03:11:00.024Z,70.57
2022-10-25T03:13:26.849Z,70.90
2022-10-25T03:15:53.526Z,70.79
2022-10-25T03:18:20.025Z,71.26
2022-10-25T03:20:46.478Z,71.02
2022-10-25T03:23:12.927Z,71.36
2022-10-25T03:25:40.189Z,71.28
2022-10-25T03:28:07.805Z,71.23
2022-10-25T03:30:34.808Z,71.40
2022-10-25T03:33:01.383Z,71.13
2022-10-25T03:35:28.092Z,71.26
2022-10-25T03:37:55.333Z,71.34
2022-10-25T03:40:23.531Z,71.46
2022-10-25T03:42:49.999Z,71.25
2022-10-25T03:45:16.472Z,70.71
2022-10-25T03:47:43.231Z,70.76
2022-10-25T03:50:10.570Z,70.66
2022-10-25T03:52:37.141Z,71.35
2022-10-25T03:55:04.866Z,71.27
2022-10-25T03:57:31.986Z,71.28
2022-10-25T03:59:59.601Z,71.00
2022-10-25T04:02:27.407Z,70.96
2022-10-25T04:04:54.151Z,71.07
2022-10-25T04:07:20.635Z,71.34
2022-10-25T04:09:47.151Z,71.42
2022-10-25T04:12:13.708Z,71.38
2022-10-25T04:14:40.139Z,71.48
2022-10-25T04:17:06.602Z,71.20
2022-10-25T04:19:33.154Z,71.07
2022-10-25T04:22:02.082Z,71.20
2022-10-25T04:24:29.245Z,71.52
2022-10-25T04:26:55.730Z,71.27
2022-10-25T04:29:22.566Z,71.19
2022-10-25T04:31:49.148Z,71.33
2022-10-25T04:34:15.832Z,71.61
2022-10-25T04:36:42.698Z,71.75
2022-10-25T04:39:09.245Z,71.85
2022-10-25T04:41:35.757Z,71.78
2022-10-25T04:44:02.203Z,71.58
2022-10-25T04:46:28.657Z,71.64
2022-10-25T04:48:55.128Z,71.67
2022-10-25T04:51:21.570Z,71.61
2022-10-25T04:53:48.023Z,71.83
2022-10-25T04:56:14.937Z,71.63
2022-10-25T04:58:41.702Z,71.84
2022-10-25T05:01:13.011Z,71.78
2022-10-25T05:03:40.147Z,71.82
2022-10-25T05:06:17.401Z,71.67
2022-10-25T05:08:47.138Z,71.61
2022-10-25T05:11:16.188Z,71.53
2022-10-25T05:13:45.026Z,71.49
2022-10-25T05:16:23.309Z,71.53
2022-10-25T05:18:54.280Z,71.53
2022-10-25T05:24:02.231Z,71.95
2022-10-25T05:26:30.176Z,71.89
2022-10-25T05:28:56.899Z,71.54
2022-10-25T05:31:30.547Z,71.42
2022-10-25T05:34:00.642Z,71.25
2022-10-25T05:36:32.401Z,71.27
2022-10-25T05:39:00.994Z,71.28
2022-10-25T05:41:29.744Z,71.43
2022-10-25T05:43:59.730Z,71.26
2022-10-25T05:46:26.374Z,71.21
2022-10-25T05:48:53.554Z,71.14
2022-10-25T05:51:34.658Z,71.33
2022-10-25T05:54:11.046Z,71.19
2022-10-25T05:56:38.546Z,71.47
2022-10-25T05:59:08.872Z,71.73
2022-10-25T06:01:39.665Z,71.73
2022-10-25T06:04:06.865Z,71.58
2022-10-25T06:06:33.865Z,71.56
2022-10-25T06:09:02.042Z,71.42
2022-10-25T06:11:29.559Z,71.58
2022-10-25T06:13:56.111Z,71.63
2022-10-25T06:16:22.863Z,71.38
2022-10-25T06:18:50.305Z,71.31
2022-10-25T06:21:21.439Z,71.04
2022-10-25T06:23:48.947Z,70.88
2022-10-25T06:26:19.790Z,71.06
2022-10-25T06:28:47.171Z,71.26
2022-10-25T06:31:17.266Z,71.03
2022-10-25T06:33:45.433Z,71.34
2022-10-25T06:36:18.819Z,71.30
2022-10-25T06:38:47.257Z,71.84
2022-10-25T06:41:22.128Z,71.56
2022-10-25T06:43:50.086Z,71.71
2022-10-25T06:46:34.113Z,71.54
2022-10-25T06:49:05.299Z,71.64
2022-10-25T06:51:33.454Z,71.51
2022-10-25T06:54:02.403Z,71.35
2022-10-25T06:56:29.414Z,71.31
2022-10-25T06:58:56.094Z,71.26
2022-10-25T07:01:24.855Z,71.64
2022-10-25T07:03:54.099Z,71.77
2022-10-25T07:06:29.532Z,71.54
2022-10-25T07:08:59.090Z,71.68
2022-10-25T07:11:28.713Z,71.35
2022-10-25T07:13:58.417Z,71.25
2022-10-25T07:16:26.798Z,71.34
2022-10-25T07:18:58.548Z,71.54
2022-10-25T07:21:25.626Z,71.50
2022-10-25T07:23:52.279Z,71.75
2022-10-25T07:26:25.239Z,71.69
2022-10-25T07:28:55.748Z,71.60
2022-10-25T07:31:26.819Z,71.67
2022-10-25T07:33:56.964Z,71.35
2022-10-25T07:36:23.429Z,71.54
2022-10-25T07:38:49.931Z,71.13
2022-10-25T07:41:16.441Z,70.86
2022-10-25T07:43:43.131Z,70.72
2022-10-25T07:46:09.707Z,70.92
2022-10-25T07:48:36.407Z,70.99
2022-10-25T07:51:05.973Z,70.98
2022-10-25T07:53:32.585Z,71.13
2022-10-25T07:55:59.091Z,71.37
2022-10-25T07:58:25.666Z,70.85
2022-10-25T08:00:52.154Z,70.67
2022-10-25T08:03:18.901Z,70.73
2022-10-25T08:05:48.124Z,70.60
2022-10-25T08:08:15.289Z,71.03
2022-10-25T08:10:43.816Z,71.12
2022-10-25T08:13:11.215Z,70.99
2022-10-25T08:15:40.636Z,70.59
2022-10-25T08:18:09.350Z,70.83
2022-10-25T08:23:23.435Z,70.61
2022-10-25T08:25:49.879Z,70.49
2022-10-25T08:28:16.479Z,70.33
2022-10-25T08:30:43.195Z,69.98
2022-10-25T08:33:11.759Z,69.84
2022-10-25T08:35:38.988Z,70.11
2022-10-25T08:38:06.234Z,70.03
2022-10-25T08:41:09.927Z,69.68
2022-10-25T08:44:16.847Z,69.25
2022-10-25T08:47:20.262Z,69.48
2022-10-25T08:50:06.408Z,69.69
2022-10-25T08:52:53.626Z,69.26
2022-10-25T08:55:32.619Z,69.25
2022-10-25T08:58:02.508Z,69.08
2022-10-25T09:00:39.356Z,68.82
2022-10-25T09:03:16.574Z,68.70
2022-10-25T09:05:52.809Z,68.30
2022-10-25T09:08:58.197Z,68.18
2022-10-25T09:11:58.686Z,67.83
2022-10-25T09:14:36.047Z,68.14
2022-10-25T09:17:21.334Z,67.13
2022-10-25T09:20:15.092Z,67.38
2022-10-25T09:22:49.274Z,67.42
2022-10-25T09:25:27.479Z,67.03
2022-10-25T09:28:01.297Z,66.77
2022-10-25T09:30:31.367Z,66.29
2022-10-25T09:33:09.075Z,65.60
2022-10-25T09:35:45.868Z,65.63
2022-10-25T09:38:36.701Z,65.59
2022-10-25T09:41:29.618Z,65.29
2022-10-25T09:44:14.370Z,65.07
2022-10-25T09:46:53.872Z,65.27
2022-10-25T09:49:40.556Z,64.75
2022-10-25T09:52:48.591Z,64.48
2022-10-25T09:55:34.585Z,64.24
2022-10-25T09:58:02.373Z,64.87
2022-10-25T10:00:29.390Z,64.66
2022-10-25T10:02:55.957Z,64.80
2022-10-25T10:05:22.974Z,64.93
2022-10-25T10:07:51.001Z,64.42
2022-10-25T10:10:27.895Z,64.34
2022-10-25T10:13:11.721Z,64.19
2022-10-25T10:15:55.411Z,64.25
2022-10-25T10:18:32.810Z,64.11
2022-10-25T10:21:11.432Z,63.32
2022-10-25T10:23:59.868Z,63.73
2022-10-25T10:26:57.107Z,64.04
2022-10-25T10:29:28.039Z,64.64
2022-10-25T10:32:00.492Z,64.33
2022-10-25T10:34:53.949Z,63.55
2022-10-25T10:37:29.993Z,64.71
2022-10-25T10:40:16.597Z,63.84
2022-10-25T10:42:43.490Z,64.82
2022-10-25T10:45:19.202Z,64.33
2022-10-25T10:47:57.954Z,64.15
2022-10-25T10:50:32.491Z,64.71
2022-10-25T10:53:14.468Z,64.44
2022-10-25T10:55:44.031Z,64.36
2022-10-25T10:58:25.254Z,64.17
2022-10-25T11:01:00.811Z,63.96
2022-10-25T11:03:48.753Z,63.25
2022-10-25T11:06:35.095Z,63.76
2022-10-25T11:09:12.183Z,62.68
2022-10-25T11:11:40.348Z,62.92
2022-10-25T11:14:17.878Z,62.78
2022-10-25T11:17:12.194Z,63.13
2022-10-25T11:19:57.238Z,62.21
2022-10-25T11:22:41.651Z,62.09
2022-10-25T11:25:44.006Z,61.49
2022-10-25T11:28:46.106Z,62.17
2022-10-25T11:32:11.782Z,62.60
2022-10-25T11:35:17.834Z,62.19
2022-10-25T11:37:58.571Z,62.67
2022-10-25T11:40:40.739Z,62.08
2022-10-25T11:43:25.343Z,60.71
2022-10-25T11:46:06.939Z,61.75
2022-10-25T11:48:45.080Z,61.42
2022-10-25T11:51:37.994Z,60.38
2022-10-25T11:55:08.866Z,61.34
2022-10-25T11:58:07.919Z,60.73
2022-10-25T12:01:02.257Z,60.09
2022-10-25T12:04:09.776Z,60.91
2022-10-25T12:06:49.972Z,60.40
2022-10-25T12:09:40.079Z,60.26
2022-10-25T12:12:14.488Z,60.17
2022-10-25T12:14:49.249Z,60.05
2022-10-25T12:17:35.960Z,59.87
2022-10-25T12:20:11.948Z,59.76
2022-10-25T12:22:45.581Z,59.84
2022-10-25T12:25:24.055Z,59.59
2022-10-25T12:28:04.704Z,60.19
2022-10-25T12:30:33.986Z,60.47
2022-10-25T12:33:19.275Z,59.69
2022-10-25T12:35:54.059Z,59.22
2022-10-25T12:38:38.168Z,56.57
2022-10-25T12:41:17.879Z,58.14
2022-10-25T12:44:20.407Z,57.21
2022-10-25T12:47:25.964Z,55.06
2022-10-25T12:50:02.506Z,58.39
2022-10-25T12:52:40.301Z,57.16
2022-10-25T12:56:08.010Z,56.71
2022-10-25T12:59:02.550Z,57.27
2022-10-25T13:02:03.051Z,57.09
2022-10-25T13:05:30.385Z,56.39
2022-10-25T13:08:01.284Z,56.97
2022-10-25T13:10:46.272Z,56.48
2022-10-25T13:13:21.634Z,56.67
2022-10-25T13:15:51.828Z,57.27
2022-10-25T13:18:47.255Z,55.84
2022-10-25T13:21:17.478Z,57.35
2022-10-25T13:23:45.572Z,57.16
2022-10-25T13:26:19.840Z,57.25
2022-10-25T13:29:26.414Z,56.94
2022-10-25T13:32:10.285Z,56.77
2022-10-25T13:34:39.009Z,56.76
2022-10-25T13:37:31.611Z,56.24
2022-10-25T13:40:04.709Z,56.14
2022-10-25T13:42:37.491Z,56.10
2022-10-25T13:45:03.876Z,56.38
2022-10-25T13:47:40.443Z,56.23
2022-10-25T13:50:51.666Z,55.47
2022-10-25T13:53:41.432Z,56.12
2022-10-25T13:56:17.615Z,56.65
2022-10-25T13:58:48.028Z,56.84
2022-10-25T14:01:17.433Z,56.82
2022-10-25T14:04:06.094Z,56.97
2022-10-25T14:06:36.076Z,57.46
2022-10-25T14:09:18.233Z,57.23
2022-10-25T14:11:51.706Z,57.36
2022-10-25T14:14:57.051Z,57.35
2022-10-25T14:17:43.451Z,57.01
2022-10-25T14:20:27.998Z,56.41
2022-10-25T14:23:01.693Z,55.84
2022-10-25T14:25:37.151Z,55.76
2022-10-25T14:28:21.700Z,55.58
2022-10-25T14:30:53.190Z,55.63
2022-10-25T14:33:51.817Z,54.81
2022-10-25T14:36:31.125Z,55.37
2022-10-25T14:39:16.469Z,55.87
2022-10-25T14:42:01.061Z,56.53
2022-10-25T14:44:48.075Z,56.58
2022-10-25T14:47:35.985Z,57.79
2022-10-25T14:50:02.761Z,57.86
2022-10-25T14:52:31.440Z,58.10
2022-10-25T14:55:05.082Z,58.84
2022-10-25T14:57:33.292Z,58.87
2022-10-25T15:00:05.679Z,59.22
2022-10-25T15:02:37.255Z,58.73
2022-10-25T15:05:05.835Z,59.38
2022-10-25T15:07:34.082Z,59.73
2022-10-25T15:12:35.543Z,60.33
2022-10-25T15:15:44.693Z,60.19
2022-10-25T15:18:34.901Z,60.46
2022-10-25T15:21:18.465Z,60.65
2022-10-25T15:24:14.818Z,60.33
2022-10-25T15:27:03.204Z,60.66
2022-10-25T15:29:41.501Z,61.25
2022-10-25T15:32:17.291Z,61.52
2022-10-25T15:34:48.822Z,61.92
2022-10-25T15:37:18.439Z,61.69
2022-10-25T15:39:51.574Z,61.77
2022-10-25T15:42:19.439Z,62.01
2022-10-25T15:44:46.126Z,61.83
2022-10-25T15:47:34.477Z,62.01
2022-10-25T15:50:10.470Z,62.52
2022-10-25T15:52:36.932Z,62.94
2022-10-25T15:55:24.365Z,62.39
2022-10-25T15:57:51.584Z,62.48
2022-10-25T16:00:25.561Z,63.10
2022-10-25T16:02:54.802Z,63.29
2022-10-25T16:05:25.967Z,63.54
2022-10-25T16:07:52.481Z,63.96
2022-10-25T16:10:22.301Z,64.31
2022-10-25T16:12:58.493Z,64.36
2022-10-25T16:15:26.998Z,64.71
2022-10-25T16:17:53.447Z,64.79
2022-10-25T16:20:23.257Z,65.23
2022-10-25T16:22:51.248Z,65.00
2022-10-25T16:25:19.214Z,64.90
2022-10-25T16:27:47.254Z,64.83
2022-10-25T16:30:23.587Z,65.10
2022-10-25T16:32:51.183Z,65.51
2022-10-25T16:35:24.132Z,65.41
2022-10-25T16:37:51.972Z,65.05
2022-10-25T16:40:20.788Z,65.15
2022-10-25T16:42:48.278Z,65.34
2022-10-25T16:45:27.526Z,66.03
2022-10-25T16:47:56.495Z,66.23
2022-10-25T16:50:25.864Z,66.12
2022-10-25T16:52:54.933Z,66.22
2022-10-25T16:55:21.966Z,66.58
2022-10-25T17:00:20.447Z,67.00
2022-10-25T17:02:47.091Z,67.21
2022-10-25T17:05:23.996Z,67.18
2022-10-25T17:07:50.767Z,67.61
2022-10-25T17:10:19.940Z,67.31
2022-10-25T17:12:53.107Z,67.82
2022-10-25T17:15:21.641Z,67.82
2022-10-25T17:17:48.459Z,67.83
2022-10-25T17:20:16.934Z,67.96
2022-10-25T17:22:43.714Z,67.76
2022-10-25T17:25:11.539Z,67.79
2022-10-25T17:27:40.399Z,67.81
2022-10-25T17:30:09.820Z,67.92
2022-10-25T17:32:37.738Z,67.82
2022-10-25T17:35:05.774Z,68.10
2022-10-25T17:37:32.353Z,68.35
2022-10-25T17:39:58.795Z,67.84
2022-10-25T17:42:25.747Z,68.57
2022-10-25T17:44:52.188Z,69.60
2022-10-25T17:47:18.649Z,69.07
2022-10-25T17:49:45.144Z,68.99
2022-10-25T17:52:11.587Z,69.17
2022-10-25T17:54:39.238Z,69.17
2022-10-25T17:57:06.106Z,69.12
2022-10-25T17:59:33.504Z,69.68
2022-10-25T18:02:00.166Z,70.40
2022-10-25T18:04:26.963Z,69.81
2022-10-25T18:06:53.595Z,70.69
2022-10-25T18:09:21.666Z,70.55
2022-10-25T18:11:48.255Z,70.36
2022-10-25T18:14:14.991Z,71.13
2022-10-25T18:16:41.575Z,71.03
2022-10-25T18:19:14.265Z,71.00
2022-10-25T18:21:41.426Z,71.14
2022-10-25T18:24:08.381Z,71.57
2022-10-25T18:26:35.626Z,71.69
2022-10-25T18:29:02.391Z,71.69
2022-10-25T18:31:29.028Z,71.80
2022-10-25T18:33:56.162Z,71.65
2022-10-25T18:36:22.857Z,70.87
2022-10-25T18:38:50.075Z,70.89
2022-10-25T18:41:23.784Z,70.30
2022-10-25T18:43:50.903Z,70.68
2022-10-25T18:46:18.489Z,70.01
2022-10-25T18:48:48.783Z,70.55
2022-10-25T18:51:15.255Z,70.55
2022-10-25T18:53:42.019Z,71.16
2022-10-25T18:56:17.096Z,71.29
2022-10-25T18:58:46.668Z,71.92
2022-10-25T19:01:20.830Z,71.86
2022-10-25T19:03:47.596Z,71.92
2022-10-25T19:06:14.776Z,71.54
2022-10-25T19:08:41.415Z,71.72
2022-10-25T19:11:13.633Z,71.14
2022-10-25T19:13:40.808Z,70.87
2022-10-25T19:16:09.213Z,70.37
2022-10-25T19:18:37.375Z,70.22
2022-10-25T19:21:08.216Z,70.39
2022-10-25T19:23:36.130Z,71.07
2022-10-25T19:26:09.788Z,71.74
2022-10-25T19:28:36.945Z,71.86
2022-10-25T19:31:16.799Z,71.67
2022-10-25T19:33:49.195Z,71.93
2022-10-25T19:36:17.355Z,71.96
2022-10-25T19:38:50.160Z,71.63
2022-10-25T19:41:22.818Z,71.40
2022-10-25T19:43:49.945Z,71.04
2022-10-25T19:46:16.644Z,70.33
2022-10-25T19:48:43.166Z,70.22
2022-10-25T19:51:19.542Z,70.49
2022-10-25T19:53:46.794Z,70.92
2022-10-25T19:56:23.061Z,71.00
2022-10-25T19:58:50.555Z,71.31
2022-10-25T20:01:27.151Z,71.82
2022-10-25T20:03:55.351Z,73.37
2022-10-25T20:06:28.664Z,72.89
2022-10-25T20:08:58.250Z,72.69
2022-10-25T20:11:26.248Z,71.83
2022-10-25T20:13:58.416Z,72.11
2022-10-25T20:16:26.370Z,72.06
2022-10-25T20:18:53.453Z,71.82
2022-10-25T20:21:28.989Z,71.87
2022-10-25T20:23:58.853Z,71.98
2022-10-25T20:26:31.171Z,72.19
2022-10-25T20:29:05.587Z,72.42
2022-10-25T20:31:34.727Z,72.67
2022-10-25T20:34:04.290Z,72.37
2022-10-25T20:36:30.900Z,72.49
2022-10-25T20:38:57.393Z,72.22
2022-10-25T20:41:28.187Z,71.99
2022-10-25T20:44:00.734Z,71.80
2022-10-25T20:46:29.148Z,71.76
2022-10-25T20:48:56.915Z,71.61
2022-10-25T20:51:23.663Z,71.41
2022-10-25T20:53:50.284Z,71.14
2022-10-25T20:56:18.891Z,71.13
2022-10-25T20:58:46.197Z,71.04
2022-10-25T21:01:13.342Z,71.94
2022-10-25T21:03:40.388Z,71.40
2022-10-25T21:06:10.464Z,71.40
2022-10-25T21:08:37.775Z,71.97
2022-10-25T21:11:07.538Z,71.72
2022-10-25T21:13:35.822Z,71.48
2022-10-25T21:16:14.798Z,71.40
2022-10-25T21:18:42.859Z,71.27
2022-10-25T21:21:17.752Z,70.59
2022-10-25T21:23:48.340Z,71.03
2022-10-25T21:26:15.318Z,71.55
2022-10-25T21:28:42.293Z,71.14
2022-10-25T21:31:15.267Z,71.12
2022-10-25T21:33:49.815Z,70.58
2022-10-25T21:36:18.604Z,71.16
2022-10-25T21:38:45.052Z,70.77
2022-10-25T21:41:15.369Z,70.70
2022-10-25T21:43:45.473Z,71.23
2022-10-25T21:46:14.825Z,71.54
2022-10-25T21:48:41.960Z,71.54
2022-10-25T21:51:08.450Z,71.64
2022-10-25T21:53:35.046Z,71.53
2022-10-25T21:56:06.687Z,71.46
2022-10-25T21:58:33.574Z,71.40
2022-10-25T22:01:00.053Z,71.14
2022-10-25T22:03:30.187Z,71.25
2022-10-25T22:05:57.725Z,71.64
2022-10-25T22:08:24.218Z,71.19
2022-10-25T22:11:03.382Z,71.21
2022-10-25T22:13:30.252Z,71.70
2022-10-25T22:16:02.040Z,71.07
2022-10-25T22:18:28.703Z,70.80
2022-10-25T22:20:58.950Z,70.60
2022-10-25T22:23:28.635Z,70.85
2022-10-25T22:25:59.494Z,71.13
2022-10-25T22:28:25.919Z,71.06
2022-10-25T22:31:07.860Z,70.95
2022-10-25T22:33:35.351Z,70.62
2022-10-25T22:36:16.887Z,70.72
2022-10-25T22:38:44.652Z,70.62
2022-10-25T22:41:15.201Z,70.52
2022-10-25T22:43:42.276Z,71.06
2022-10-25T22:46:13.630Z,70.96
2022-10-25T22:48:42.985Z,70.75
2022-10-25T22:51:11.732Z,70.74
2022-10-25T22:53:39.189Z,70.83
2022-10-25T22:56:11.714Z,70.63
2022-10-25T22:58:40.215Z,70.78
2022-10-25T23:01:17.989Z,70.77
2022-10-25T23:03:48.837Z,70.78
2022-10-25T23:06:19.485Z,70.75
2022-10-25T23:08:46.411Z,71.25
2022-10-25T23:11:20.079Z,70.91
2022-10-25T23:13:47.516Z,70.94
2022-10-25T23:16:15.219Z,70.90
2022-10-25T23:18:43.127Z,71.08
2022-10-25T23:21:19.446Z,70.77
2022-10-25T23:23:46.837Z,71.12
2022-10-25T23:26:21.208Z,70.77
2022-10-25T23:28:48.087Z,70.73
2022-10-25T23:31:15.103Z,70.72
2022-10-25T23:33:42.563Z,70.79
2022-10-25T23:36:16.272Z,70.21
2022-10-25T23:38:43.858Z,70.16
2022-10-25T23:41:10.748Z,70.14
2022-10-25T23:43:37.533Z,70.21
2022-10-25T23:46:05.912Z,70.39
2022-10-25T23:48:32.391Z,70.64
2022-10-25T23:51:06.368Z,70.20
2022-10-25T23:53:33.998Z,70.31
2022-10-25T23:56:02.001Z,70.14
2022-10-25T23:58:28.455Z,70.09
